Time;durP1;ratioP1;P1;durP2;ratioP2;P2;SDS_P1;SDS_P2;PMS_P1;PMS_P2;Temp;Humidity;BMP_temperature;BMP_pressure;BME280_temperature;BME280_humidity;BME280_pressure;Samples;Min_cycle;Max_cycle;Signal;HPM_P1;HPM_P2
2022/11/26 00:02:30;;;;;;;1.80;1.50;;;9.90;99.90;;;;;;5023296;28;20258;-76
2022/11/26 00:04:58;;;;;;;2.17;1.50;;;9.90;99.90;;;;;;5023331;28;20276;-76
2022/11/26 00:07:29;;;;;;;4.00;1.70;;;9.90;99.90;;;;;;5019984;28;20223;-76
2022/11/26 00:09:57;;;;;;;5.23;1.60;;;9.90;99.90;;;;;;5022853;28;20297;-76
2022/11/26 00:12:31;;;;;;;3.30;1.37;;;9.80;99.90;;;;;;5021705;28;20659;-77
2022/11/26 00:15:04;;;;;;;4.20;1.50;;;9.90;99.90;;;;;;5042664;28;20546;-76
2022/11/26 00:17:31;;;;;;;4.40;1.70;;;9.90;99.90;;;;;;5021255;28;20660;-76
2022/11/26 00:19:58;;;;;;;1.80;1.30;;;10.00;99.90;;;;;;5004471;28;20184;-77
2022/11/26 00:22:36;;;;;;;3.67;1.30;;;10.00;99.90;;;;;;5027357;28;20199;-76
2022/11/26 00:25:03;;;;;;;2.80;1.60;;;10.00;99.90;;;;;;5012557;28;20180;-76
2022/11/26 00:27:30;;;;;;;5.00;1.60;;;10.00;99.90;;;;;;5018029;28;20211;-76
2022/11/26 00:29:57;;;;;;;4.00;1.50;;;10.00;99.90;;;;;;5024752;28;20183;-76
2022/11/26 00:32:25;;;;;;;4.00;1.50;;;10.00;99.90;;;;;;5021343;28;20298;-76
2022/11/26 00:34:52;;;;;;;6.63;1.50;;;10.00;99.90;;;;;;5018282;28;20192;-76
2022/11/26 00:37:21;;;;;;;3.00;1.50;;;10.00;99.90;;;;;;5024803;28;20657;-76
2022/11/26 00:39:48;;;;;;;3.10;1.60;;;10.00;99.90;;;;;;5021834;28;20564;-77
2022/11/26 00:42:15;;;;;;;6.43;1.63;;;10.00;99.90;;;;;;5014327;28;20183;-76
2022/11/26 00:44:42;;;;;;;5.97;1.97;;;10.10;99.90;;;;;;5025582;28;20267;-76
2022/11/26 00:47:09;;;;;;;4.50;1.60;;;10.00;99.90;;;;;;5031950;28;20204;-76
2022/11/26 00:49:36;;;;;;;4.30;1.40;;;10.10;99.90;;;;;;5025906;28;20188;-76
2022/11/26 00:52:13;;;;;;;2.73;1.27;;;10.10;99.90;;;;;;5008597;28;20199;-76
2022/11/26 00:54:39;;;;;;;4.97;1.80;;;10.10;99.90;;;;;;5042769;28;20179;-76
2022/11/26 00:57:09;;;;;;;2.63;1.60;;;10.10;99.90;;;;;;5022574;28;20193;-76
2022/11/26 00:59:37;;;;;;;2.27;1.40;;;10.10;99.90;;;;;;5018206;28;20242;-76
2022/11/26 01:02:03;;;;;;;4.13;1.70;;;10.10;99.90;;;;;;5047657;28;20195;-77
2022/11/26 01:04:33;;;;;;;2.93;1.70;;;10.10;99.90;;;;;;5023509;28;20188;-76
2022/11/26 01:07:00;;;;;;;4.77;1.70;;;10.00;99.90;;;;;;5021230;28;20235;-76
2022/11/26 01:09:26;;;;;;;3.80;1.57;;;10.00;99.90;;;;;;5025442;28;20222;-77
2022/11/26 01:11:54;;;;;;;3.80;1.63;;;10.10;99.90;;;;;;5037566;28;20230;-76
2022/11/26 01:14:22;;;;;;;4.40;1.60;;;10.00;99.90;;;;;;5002898;28;20849;-76
2022/11/26 01:16:55;;;;;;;3.73;1.63;;;10.00;99.90;;;;;;5026923;28;20183;-76
2022/11/26 01:19:22;;;;;;;3.57;1.57;;;10.00;99.90;;;;;;5021584;28;20184;-76
2022/11/26 01:21:49;;;;;;;2.60;1.40;;;10.00;99.90;;;;;;5023121;28;20199;-76
2022/11/26 01:24:15;;;;;;;6.80;1.70;;;9.90;99.90;;;;;;5026944;28;20748;-76
2022/11/26 01:26:44;;;;;;;3.77;1.50;;;9.90;99.90;;;;;;5025552;28;20534;-76
2022/11/26 01:29:17;;;;;;;3.70;1.50;;;9.90;99.90;;;;;;5035428;28;20265;-76
2022/11/26 01:31:44;;;;;;;3.97;1.40;;;9.80;99.90;;;;;;5025066;28;20183;-76
2022/11/26 01:34:11;;;;;;;3.33;1.50;;;9.80;99.90;;;;;;5033792;28;20598;-76
2022/11/26 01:36:40;;;;;;;1.50;1.40;;;9.80;99.90;;;;;;5025752;28;20267;-76
2022/11/26 01:39:14;;;;;;;3.17;1.80;;;9.80;99.90;;;;;;5022055;28;20280;-76
2022/11/26 01:42:04;;;;;;;4.23;2.00;;;9.80;99.90;;;;;;5015162;28;20209;-76
2022/11/26 01:44:34;;;;;;;5.70;1.50;;;9.80;99.90;;;;;;5047714;28;20241;-76
2022/11/26 01:47:23;;;;;;;4.27;1.50;;;9.80;99.90;;;;;;5051682;28;20688;-76
2022/11/26 01:50:27;;;;;;;3.33;1.50;;;9.80;99.90;;;;;;5019526;28;20657;-76
2022/11/26 01:53:12;;;;;;;3.50;1.50;;;9.70;99.90;;;;;;5024146;28;20223;-76
2022/11/26 01:55:51;;;;;;;5.33;1.50;;;9.70;99.90;;;;;;5016687;28;20271;-76
2022/11/26 01:58:30;;;;;;;8.27;1.80;;;9.80;99.90;;;;;;5014351;28;20184;-76
2022/11/26 02:00:58;;;;;;;2.10;1.20;;;9.80;99.90;;;;;;5024229;28;20249;-76
2022/11/26 02:03:27;;;;;;;4.73;1.60;;;9.80;99.90;;;;;;5032309;28;20211;-76
2022/11/26 02:06:12;;;;;;;2.57;1.57;;;9.80;99.90;;;;;;5029472;28;20549;-76
2022/11/26 02:08:38;;;;;;;4.17;1.60;;;9.80;99.90;;;;;;5009997;28;20211;-76
2022/11/26 02:11:22;;;;;;;3.30;1.40;;;9.80;99.90;;;;;;5023111;28;21003;-76
2022/11/26 02:13:54;;;;;;;4.83;1.50;;;9.80;99.90;;;;;;5025638;28;20234;-76
2022/11/26 02:16:55;;;;;;;3.47;1.73;;;9.80;99.90;;;;;;5017885;28;20184;-76
2022/11/26 02:19:41;;;;;;;6.13;1.60;;;9.90;99.90;;;;;;5028888;28;20227;-76
2022/11/26 02:22:44;;;;;;;3.27;1.60;;;9.90;99.90;;;;;;5030674;28;20207;-76
2022/11/26 02:25:55;;;;;;;3.17;1.50;;;9.90;99.90;;;;;;5008390;28;20192;-76
2022/11/26 02:29:02;;;;;;;3.93;1.40;;;9.90;99.90;;;;;;5031839;28;20247;-76
2022/11/26 02:32:04;;;;;;;3.13;1.20;;;9.80;99.90;;;;;;5024758;28;20192;-76
2022/11/26 02:34:55;;;;;;;3.17;1.60;;;9.80;99.90;;;;;;5022779;28;20180;-76
2022/11/26 02:37:52;;;;;;;3.83;1.80;;;9.90;99.90;;;;;;5028378;28;20185;-76
2022/11/26 02:40:18;;;;;;;3.97;1.43;;;9.90;99.90;;;;;;5027122;28;20196;-76
2022/11/26 02:42:45;;;;;;;3.07;1.60;;;9.90;99.90;;;;;;5029518;28;20203;-76
2022/11/26 02:45:18;;;;;;;2.97;1.40;;;9.90;99.90;;;;;;5020598;28;20657;-76
2022/11/26 02:47:51;;;;;;;1.97;1.40;;;9.90;99.90;;;;;;5021487;28;20254;-76
2022/11/26 02:50:36;;;;;;;2.77;1.50;;;9.90;99.90;;;;;;5027091;28;20238;-77
2022/11/26 02:53:05;;;;;;;4.60;1.30;;;9.90;99.90;;;;;;5029739;28;20509;-76
2022/11/26 02:55:39;;;;;;;4.03;1.60;;;9.90;99.90;;;;;;5042686;28;20871;-76
2022/11/26 02:58:07;;;;;;;4.63;1.57;;;9.90;99.90;;;;;;5025632;28;20223;-76
2022/11/26 03:00:38;;;;;;;5.10;1.80;;;9.90;99.90;;;;;;5022421;28;20288;-76
2022/11/26 03:03:28;;;;;;;2.97;1.33;;;9.90;99.90;;;;;;5025340;28;20180;-76
2022/11/26 03:06:01;;;;;;;3.43;1.40;;;9.90;99.90;;;;;;5020673;28;20604;-75
2022/11/26 03:08:29;;;;;;;4.80;1.63;;;9.90;99.90;;;;;;5028361;28;20690;-76
2022/11/26 03:10:57;;;;;;;5.23;1.37;;;9.90;99.90;;;;;;5029999;28;20203;-75
2022/11/26 03:13:23;;;;;;;8.13;1.63;;;9.90;99.90;;;;;;5018679;28;20202;-75
2022/11/26 03:15:49;;;;;;;4.00;1.50;;;9.90;99.90;;;;;;5021817;28;20251;-75
2022/11/26 03:18:16;;;;;;;5.80;1.93;;;9.90;99.90;;;;;;5023017;28;20199;-75
2022/11/26 03:20:43;;;;;;;2.60;1.53;;;9.90;99.90;;;;;;5020457;28;20549;-76
2022/11/26 03:23:10;;;;;;;4.00;1.70;;;10.00;99.90;;;;;;5017074;28;20673;-75
2022/11/26 03:25:36;;;;;;;3.70;1.40;;;10.00;99.90;;;;;;5029024;28;20202;-76
2022/11/26 03:28:04;;;;;;;4.30;1.33;;;10.00;99.90;;;;;;5042958;28;20216;-75
2022/11/26 03:30:31;;;;;;;5.40;1.50;;;10.00;99.90;;;;;;5028007;28;20649;-75
2022/11/26 03:32:58;;;;;;;2.30;1.60;;;10.00;99.90;;;;;;5018462;28;20181;-75
2022/11/26 03:35:25;;;;;;;6.10;1.60;;;10.00;99.90;;;;;;5023177;28;20576;-76
2022/11/26 03:37:52;;;;;;;4.13;1.60;;;10.00;99.90;;;;;;5023633;28;20188;-76
2022/11/26 03:40:19;;;;;;;3.63;1.57;;;10.00;99.90;;;;;;5027176;28;20805;-76
2022/11/26 03:42:45;;;;;;;2.10;1.80;;;10.00;99.90;;;;;;5021530;28;20199;-76
2022/11/26 03:45:15;;;;;;;1.50;1.30;;;10.00;99.90;;;;;;5025431;28;20184;-75
2022/11/26 03:47:43;;;;;;;2.73;1.23;;;10.10;99.90;;;;;;5019198;28;20569;-76
2022/11/26 03:50:13;;;;;;;2.80;1.53;;;10.10;99.90;;;;;;5026687;28;20189;-75
2022/11/26 03:52:39;;;;;;;2.93;1.70;;;10.10;99.90;;;;;;5021043;28;20545;-75
2022/11/26 03:55:08;;;;;;;2.43;1.40;;;10.10;99.90;;;;;;5020962;28;20200;-76
2022/11/26 03:57:34;;;;;;;3.07;1.70;;;10.10;99.90;;;;;;5031104;28;20326;-75
2022/11/26 04:00:00;;;;;;;4.70;1.63;;;10.10;99.90;;;;;;5032266;28;20924;-76
2022/11/26 04:02:27;;;;;;;1.50;1.40;;;10.10;99.90;;;;;;5024732;28;20203;-76
2022/11/26 04:04:53;;;;;;;2.20;1.60;;;10.10;99.90;;;;;;5027083;28;20192;-76
2022/11/26 04:07:19;;;;;;;4.00;1.70;;;10.10;99.90;;;;;;5042329;28;20278;-75
2022/11/26 04:09:45;;;;;;;1.60;1.30;;;10.10;99.90;;;;;;5028921;28;20188;-76
2022/11/26 04:12:12;;;;;;;2.73;1.83;;;10.10;99.90;;;;;;5014973;28;20257;-76
2022/11/26 04:14:38;;;;;;;2.57;1.70;;;10.10;99.90;;;;;;5026896;28;20676;-76
2022/11/26 04:17:05;;;;;;;2.37;1.37;;;10.20;99.90;;;;;;5006053;28;20269;-76
2022/11/26 04:19:31;;;;;;;4.43;1.90;;;10.20;99.90;;;;;;5022685;28;20195;-75
2022/11/26 04:21:57;;;;;;;3.57;1.80;;;10.20;99.90;;;;;;5022001;28;20303;-76
2022/11/26 04:24:24;;;;;;;2.10;1.60;;;10.20;99.90;;;;;;5025058;28;20227;-76
2022/11/26 04:26:50;;;;;;;2.20;1.60;;;10.20;99.90;;;;;;5042639;28;20720;-76
2022/11/26 04:29:16;;;;;;;4.43;1.80;;;10.30;99.90;;;;;;5024259;28;20222;-76
2022/11/26 04:31:46;;;;;;;3.77;1.50;;;10.30;99.90;;;;;;5026064;28;20722;-75
2022/11/26 04:34:13;;;;;;;3.00;1.80;;;10.30;99.90;;;;;;5025854;28;20180;-76
2022/11/26 04:36:44;;;;;;;3.07;1.83;;;10.30;99.90;;;;;;5027457;28;20180;-76
2022/11/26 04:39:11;;;;;;;5.13;2.10;;;10.20;99.90;;;;;;5023279;28;20204;-76
2022/11/26 04:41:38;;;;;;;4.37;1.90;;;10.20;99.90;;;;;;5029436;28;20287;-75
2022/11/26 04:44:04;;;;;;;4.07;1.73;;;10.20;99.90;;;;;;5023177;28;20207;-76
2022/11/26 04:46:31;;;;;;;2.27;1.70;;;10.20;99.90;;;;;;5027569;28;20184;-76
2022/11/26 04:48:57;;;;;;;2.20;1.80;;;10.20;99.90;;;;;;5013597;28;20223;-75
2022/11/26 04:51:23;;;;;;;3.60;1.70;;;10.20;99.90;;;;;;5020551;28;20188;-76
2022/11/26 04:53:50;;;;;;;2.80;1.83;;;10.10;99.90;;;;;;5022204;28;20185;-76
2022/11/26 04:56:16;;;;;;;2.63;1.53;;;10.20;99.90;;;;;;5027101;28;20624;-76
2022/11/26 04:58:43;;;;;;;3.03;1.67;;;10.10;99.90;;;;;;5015814;28;20653;-76
2022/11/26 05:01:10;;;;;;;3.50;1.97;;;10.10;99.90;;;;;;5027492;28;20188;-76
2022/11/26 05:03:36;;;;;;;3.80;1.90;;;10.10;99.90;;;;;;5026248;28;20188;-76
2022/11/26 05:06:03;;;;;;;5.70;1.70;;;10.10;99.90;;;;;;5021600;28;20753;-76
2022/11/26 05:08:30;;;;;;;2.00;1.60;;;10.20;99.90;;;;;;5025151;28;20216;-75
2022/11/26 05:10:59;;;;;;;4.57;1.87;;;10.20;99.90;;;;;;5036797;28;20880;-75
2022/11/26 05:13:26;;;;;;;2.77;1.90;;;10.20;99.90;;;;;;5024715;28;20185;-76
2022/11/26 05:15:52;;;;;;;2.93;1.77;;;10.30;99.90;;;;;;5023852;28;20259;-76
2022/11/26 05:18:24;;;;;;;5.03;1.90;;;10.30;99.90;;;;;;5003918;28;20196;-76
2022/11/26 05:20:50;;;;;;;1.87;1.53;;;10.30;99.90;;;;;;5012372;28;20188;-75
2022/11/26 05:23:19;;;;;;;4.53;2.07;;;10.30;99.90;;;;;;5027450;28;20195;-76
2022/11/26 05:25:46;;;;;;;3.17;2.00;;;10.30;99.90;;;;;;5004212;28;20250;-76
2022/11/26 05:28:18;;;;;;;2.60;2.10;;;10.30;99.90;;;;;;5025774;28;20550;-75
2022/11/26 05:30:45;;;;;;;5.33;2.23;;;10.30;99.90;;;;;;5026613;28;20189;-76
2022/11/26 05:33:12;;;;;;;4.60;1.90;;;10.40;99.90;;;;;;5039989;28;20203;-76
2022/11/26 05:35:38;;;;;;;4.20;2.10;;;10.40;99.90;;;;;;5024675;28;20189;-76
2022/11/26 05:38:05;;;;;;;5.00;2.10;;;10.30;99.90;;;;;;5027684;28;20184;-76
2022/11/26 05:40:35;;;;;;;2.17;1.80;;;10.40;99.90;;;;;;5027810;28;20196;-76
2022/11/26 05:43:02;;;;;;;1.67;1.50;;;10.40;99.90;;;;;;5031153;28;20696;-76
2022/11/26 05:45:29;;;;;;;1.53;1.43;;;10.40;99.90;;;;;;5026598;28;20560;-75
2022/11/26 05:47:55;;;;;;;3.63;1.60;;;10.50;99.90;;;;;;5040932;28;20745;-76
2022/11/26 05:50:22;;;;;;;4.07;1.67;;;10.50;99.90;;;;;;5021770;28;20188;-75
2022/11/26 05:52:50;;;;;;;3.30;1.60;;;10.50;99.90;;;;;;5023948;28;20292;-76
2022/11/26 05:55:18;;;;;;;2.83;1.80;;;10.60;99.90;;;;;;5029378;28;20196;-75
2022/11/26 05:57:45;;;;;;;4.50;1.77;;;10.70;99.90;;;;;;5027696;28;20210;-75
2022/11/26 06:00:14;;;;;;;3.17;1.93;;;10.70;99.90;;;;;;5003668;28;20185;-76
2022/11/26 06:02:40;;;;;;;3.47;1.70;;;10.80;99.90;;;;;;5013049;28;20296;-76
2022/11/26 06:05:08;;;;;;;3.20;1.70;;;10.90;99.90;;;;;;5013377;28;20184;-75
2022/11/26 06:07:35;;;;;;;3.90;1.90;;;10.90;99.90;;;;;;5032474;28;20270;-75
2022/11/26 06:10:02;;;;;;;5.63;2.10;;;10.90;99.90;;;;;;5027818;28;20192;-76
2022/11/26 06:12:29;;;;;;;4.60;1.83;;;11.00;99.90;;;;;;5029356;28;20274;-76
2022/11/26 06:14:56;;;;;;;2.37;1.83;;;11.10;99.90;;;;;;5030568;28;20206;-75
2022/11/26 06:17:24;;;;;;;2.37;1.90;;;11.10;99.90;;;;;;5024254;28;20767;-75
2022/11/26 06:19:51;;;;;;;6.90;2.40;;;11.20;99.90;;;;;;5024875;28;20196;-75
2022/11/26 06:22:18;;;;;;;3.63;2.23;;;11.20;99.90;;;;;;5019668;28;21592;-76
2022/11/26 06:24:45;;;;;;;4.53;2.20;;;11.30;99.90;;;;;;5030307;28;20195;-76
2022/11/26 06:27:11;;;;;;;2.80;1.97;;;11.30;99.90;;;;;;5021594;28;20223;-76
2022/11/26 06:29:38;;;;;;;4.77;2.23;;;11.40;99.90;;;;;;5028027;28;20199;-76
2022/11/26 06:32:04;;;;;;;4.77;2.20;;;11.40;99.90;;;;;;5044988;28;20184;-76
2022/11/26 06:34:31;;;;;;;4.43;2.17;;;11.40;99.90;;;;;;5020909;28;20185;-76
2022/11/26 06:36:57;;;;;;;5.03;2.50;;;11.40;99.90;;;;;;5030773;28;20642;-76
2022/11/26 06:39:26;;;;;;;4.27;2.47;;;11.50;99.90;;;;;;5021675;28;20613;-76
2022/11/26 06:41:53;;;;;;;3.40;2.63;;;11.60;99.90;;;;;;5022386;28;20185;-76
2022/11/26 06:44:19;;;;;;;8.67;3.00;;;11.60;99.90;;;;;;5022046;28;21036;-76
2022/11/26 06:46:50;;;;;;;4.13;2.47;;;11.60;99.90;;;;;;5020031;28;20265;-75
2022/11/26 06:49:16;;;;;;;4.90;2.87;;;11.60;99.90;;;;;;5016882;28;20200;-77
2022/11/26 06:51:42;;;;;;;4.47;2.53;;;11.70;99.90;;;;;;5023671;28;20291;-77
2022/11/26 06:54:09;;;;;;;3.53;2.60;;;11.70;99.90;;;;;;5020129;28;20201;-77
2022/11/26 06:56:35;;;;;;;5.67;2.60;;;11.70;99.90;;;;;;5023849;28;20244;-77
2022/11/26 06:59:02;;;;;;;7.13;3.50;;;11.70;99.90;;;;;;5033795;28;20245;-77
2022/11/26 07:01:28;;;;;;;5.60;3.27;;;11.70;99.90;;;;;;5021799;28;20200;-77
2022/11/26 07:03:54;;;;;;;6.53;3.60;;;11.70;99.90;;;;;;5019384;28;20192;-77
2022/11/26 07:06:28;;;;;;;6.83;3.27;;;11.70;99.90;;;;;;5019790;28;20199;-77
2022/11/26 07:08:57;;;;;;;5.30;3.10;;;11.70;99.90;;;;;;5026780;28;20569;-77
2022/11/26 07:11:25;;;;;;;5.07;3.40;;;11.80;99.90;;;;;;5058017;28;20208;-77
2022/11/26 07:13:52;;;;;;;4.00;3.10;;;11.80;99.90;;;;;;5005788;28;20281;-77
2022/11/26 07:16:19;;;;;;;11.93;3.70;;;11.80;99.90;;;;;;5034112;28;20194;-77
2022/11/26 07:18:52;;;;;;;9.03;3.40;;;11.90;99.90;;;;;;5032948;28;20258;-77
2022/11/26 07:21:19;;;;;;;5.53;3.20;;;11.90;99.90;;;;;;5029133;28;20242;-77
2022/11/26 07:23:47;;;;;;;6.67;3.37;;;12.00;99.90;;;;;;5023113;28;20661;-77
2022/11/26 07:26:15;;;;;;;7.47;3.60;;;12.00;99.90;;;;;;5016883;28;20589;-77
2022/11/26 07:28:42;;;;;;;7.20;3.80;;;12.10;99.90;;;;;;5028442;28;20215;-77
2022/11/26 07:31:13;;;;;;;3.87;3.30;;;12.10;99.90;;;;;;5026023;28;20192;-77
2022/11/26 07:33:39;;;;;;;8.63;3.83;;;12.10;99.90;;;;;;5027921;28;20185;-77
2022/11/26 07:36:19;;;;;;;4.83;3.50;;;12.10;99.90;;;;;;5015331;28;20197;-77
2022/11/26 07:38:46;;;;;;;5.97;3.40;;;12.10;99.90;;;;;;5027744;28;20276;-77
2022/11/26 07:41:18;;;;;;;5.67;3.50;;;12.20;99.90;;;;;;5022651;28;20188;-77
2022/11/26 07:43:46;;;;;;;6.83;3.70;;;12.20;99.90;;;;;;5019362;28;20223;-77
2022/11/26 07:46:20;;;;;;;5.17;3.43;;;12.30;99.90;;;;;;5015953;28;20250;-77
2022/11/26 07:48:48;;;;;;;6.50;3.20;;;12.30;99.90;;;;;;5006128;28;20695;-77
2022/11/26 07:51:32;;;;;;;7.10;3.50;;;12.30;99.90;;;;;;5023332;28;20216;-77
2022/11/26 07:54:05;;;;;;;4.90;3.33;;;12.40;99.90;;;;;;5019487;28;20196;-77
2022/11/26 07:56:32;;;;;;;6.17;3.10;;;12.40;99.90;;;;;;5015184;28;20801;-77
2022/11/26 07:59:07;;;;;;;4.73;3.37;;;12.40;99.90;;;;;;5023154;28;20203;-76
2022/11/26 08:01:36;;;;;;;6.07;3.23;;;12.50;99.90;;;;;;5015295;28;20196;-77
2022/11/26 08:04:13;;;;;;;4.23;3.00;;;12.50;99.90;;;;;;5025960;28;20188;-77
2022/11/26 08:06:39;;;;;;;10.97;3.30;;;12.60;99.90;;;;;;5016585;28;20257;-77
2022/11/26 08:09:06;;;;;;;7.13;2.83;;;12.70;99.90;;;;;;5009076;28;20238;-77
2022/11/26 08:11:34;;;;;;;4.77;3.07;;;12.70;99.90;;;;;;5020740;28;20195;-77
2022/11/26 08:14:08;;;;;;;4.97;2.87;;;12.80;99.90;;;;;;5011910;28;20177;-77
2022/11/26 08:16:39;;;;;;;6.87;2.93;;;12.90;99.90;;;;;;5025427;28;20237;-77
2022/11/26 08:19:11;;;;;;;5.63;2.60;;;12.90;99.90;;;;;;5021270;28;20282;-77
2022/11/26 08:21:38;;;;;;;5.00;2.50;;;13.00;99.90;;;;;;5024689;28;20576;-77
2022/11/26 08:24:07;;;;;;;6.03;2.60;;;13.20;99.90;;;;;;5027006;28;20299;-77
2022/11/26 08:26:33;;;;;;;4.80;2.50;;;13.30;99.90;;;;;;5019308;28;20199;-77
2022/11/26 08:29:00;;;;;;;8.40;2.77;;;13.30;99.90;;;;;;5018755;28;20216;-77
2022/11/26 08:31:30;;;;;;;6.50;2.80;;;13.30;99.90;;;;;;5023659;28;20192;-77
2022/11/26 08:33:59;;;;;;;6.30;3.00;;;13.30;99.90;;;;;;5012785;28;20281;-77
2022/11/26 08:36:29;;;;;;;4.60;2.70;;;13.20;99.90;;;;;;5017166;28;20203;-77
2022/11/26 08:38:59;;;;;;;3.70;2.50;;;13.20;99.90;;;;;;5023483;28;20728;-77
2022/11/26 08:41:26;;;;;;;5.03;2.57;;;13.20;99.90;;;;;;5017032;28;20201;-77
2022/11/26 08:43:53;;;;;;;6.40;2.40;;;13.20;99.90;;;;;;5002572;28;20189;-77
2022/11/26 08:46:20;;;;;;;11.63;2.20;;;13.20;99.90;;;;;;5014513;28;20188;-77
2022/11/26 08:48:47;;;;;;;4.33;2.10;;;13.30;99.90;;;;;;5025827;28;20219;-77
2022/11/26 08:51:13;;;;;;;3.00;2.23;;;13.20;99.90;;;;;;5021880;28;20195;-77
2022/11/26 08:53:39;;;;;;;4.13;2.30;;;13.30;99.90;;;;;;5030841;28;20227;-77
2022/11/26 08:56:11;;;;;;;4.70;2.83;;;13.30;99.90;;;;;;5015972;28;20243;-77
2022/11/26 08:58:47;;;;;;;2.30;2.00;;;13.50;99.90;;;;;;5016140;28;20188;-77
2022/11/26 09:01:21;;;;;;;6.40;2.50;;;13.60;99.90;;;;;;5032336;28;20188;-77
2022/11/26 09:03:55;;;;;;;2.73;2.13;;;13.60;99.90;;;;;;5023676;28;20185;-77
2022/11/26 09:06:25;;;;;;;3.03;2.00;;;13.60;99.90;;;;;;5017706;28;20202;-77
2022/11/26 09:11:50;;;;;;;3.70;2.27;;;13.70;99.90;;;;;;5020888;28;20215;-77
2022/11/26 09:14:23;;;;;;;2.30;2.10;;;13.70;99.90;;;;;;5017289;28;20188;-77
2022/11/26 09:16:56;;;;;;;4.30;2.07;;;13.70;99.90;;;;;;5026799;28;20204;-77
2022/11/26 09:19:23;;;;;;;3.77;2.13;;;13.90;99.90;;;;;;5044358;28;20633;-77
2022/11/26 09:21:50;;;;;;;4.10;1.90;;;14.00;99.90;;;;;;5025258;28;20196;-77
2022/11/26 09:24:18;;;;;;;4.13;2.10;;;14.00;99.90;;;;;;5042940;28;20251;-77
2022/11/26 09:26:47;;;;;;;4.77;2.60;;;14.00;99.90;;;;;;5019739;28;20191;-77
2022/11/26 09:29:19;;;;;;;3.07;2.30;;;14.10;99.90;;;;;;5016166;28;20220;-77
2022/11/26 09:31:47;;;;;;;4.87;2.17;;;14.10;99.90;;;;;;5025252;28;20220;-77
2022/11/26 09:34:15;;;;;;;3.53;2.07;;;14.10;99.90;;;;;;5030201;28;20192;-77
2022/11/26 09:36:41;;;;;;;7.53;2.30;;;14.10;99.90;;;;;;5030077;28;20202;-77
2022/11/26 09:39:11;;;;;;;3.97;2.00;;;14.10;99.90;;;;;;5020571;28;20943;-77
2022/11/26 09:42:22;;;;;;;3.23;2.10;;;14.20;99.90;;;;;;5025785;28;20279;-77
2022/11/26 09:45:09;;;;;;;4.33;2.47;;;14.20;99.90;;;;;;5027463;28;20200;-77
2022/11/26 09:47:44;;;;;;;2.43;1.93;;;14.30;99.90;;;;;;5011509;28;20308;-77
2022/11/26 09:50:10;;;;;;;4.97;2.47;;;14.40;99.90;;;;;;5005529;28;20191;-77
2022/11/26 09:53:03;;;;;;;4.17;2.20;;;14.40;99.90;;;;;;5019161;28;20196;-77
2022/11/26 09:55:37;;;;;;;3.13;2.30;;;14.50;99.90;;;;;;5025410;28;20226;-76
2022/11/26 09:58:40;;;;;;;2.27;1.93;;;14.60;99.90;;;;;;5025718;28;20298;-77
2022/11/26 10:01:17;;;;;;;5.80;2.07;;;14.60;99.90;;;;;;5018744;28;20243;-77
2022/11/26 10:03:43;;;;;;;3.33;2.00;;;14.70;99.90;;;;;;5017978;28;20339;-77
2022/11/26 10:06:46;;;;;;;3.33;2.30;;;14.70;99.90;;;;;;5030349;28;20187;-76
2022/11/26 10:09:50;;;;;;;2.67;2.27;;;14.80;99.90;;;;;;5026182;28;20207;-75
2022/11/26 10:13:00;;;;;;;2.50;2.17;;;14.70;99.90;;;;;;5024801;28;20211;-76
2022/11/26 10:15:51;;;;;;;3.50;2.17;;;14.80;99.90;;;;;;5022508;28;20718;-76
2022/11/26 10:18:57;;;;;;;2.67;2.07;;;14.70;99.90;;;;;;5034864;28;20192;-76
2022/11/26 10:21:38;;;;;;;2.20;2.00;;;14.80;99.90;;;;;;4958541;28;20234;-75
2022/11/26 10:24:32;;;;;;;5.37;2.40;;;14.80;99.90;;;;;;5024566;28;20833;-76
2022/11/26 10:27:08;;;;;;;2.27;2.00;;;15.10;99.90;;;;;;5023583;28;20252;-76
2022/11/26 10:29:42;;;;;;;3.70;2.30;;;15.20;99.90;;;;;;5038560;28;20613;-76
2022/11/26 10:32:34;;;;;;;7.60;2.40;;;15.40;99.90;;;;;;5029366;28;20194;-76
2022/11/26 10:35:05;;;;;;;4.40;2.03;;;15.50;99.90;;;;;;5025521;28;20250;-76
2022/11/26 10:37:32;;;;;;;5.13;1.90;;;15.70;99.90;;;;;;5034666;28;20196;-76
2022/11/26 10:40:26;;;;;;;4.10;2.13;;;15.90;99.90;;;;;;5028467;28;20215;-76
2022/11/26 10:43:08;;;;;;;3.10;2.03;;;16.00;99.90;;;;;;5029846;28;20181;-76
2022/11/26 10:45:41;;;;;;;2.90;2.00;;;15.90;99.90;;;;;;5022715;28;20782;-76
2022/11/26 10:48:25;;;;;;;2.53;2.13;;;15.80;99.90;;;;;;5026229;28;20224;-76
2022/11/26 10:51:15;;;;;;;4.07;2.03;;;15.70;99.90;;;;;;5043662;28;20214;-76
2022/11/26 10:53:52;;;;;;;4.80;2.00;;;15.60;99.90;;;;;;5023616;28;20951;-76
2022/11/26 10:56:44;;;;;;;2.88;2.05;;;15.70;99.90;;;;;;5034208;28;20422;-76
2022/11/26 10:59:35;;;;;;;5.13;2.05;;;15.90;99.90;;;;;;5022433;28;20418;-76
2022/11/26 11:02:19;;;;;;;2.83;1.80;;;16.20;99.90;;;;;;5018942;28;20427;-77
2022/11/26 11:04:51;;;;;;;1.98;1.60;;;16.40;99.90;;;;;;5022961;28;20429;-76
2022/11/26 11:07:38;;;;;;;2.88;1.67;;;16.40;99.90;;;;;;5042116;28;20426;-77
2022/11/26 11:10:08;;;;;;;2.92;1.85;;;16.40;99.90;;;;;;5056834;28;20196;-77
2022/11/26 11:12:39;;;;;;;1.63;1.48;;;16.40;99.90;;;;;;5024950;28;20699;-76
2022/11/26 11:15:30;;;;;;;4.32;1.63;;;16.50;99.90;;;;;;5021495;28;20200;-76
2022/11/26 11:18:19;;;;;;;2.13;1.60;;;16.50;99.90;;;;;;5007958;28;20192;-76
2022/11/26 11:20:55;;;;;;;2.10;1.70;;;16.50;99.90;;;;;;5016842;28;20202;-76
2022/11/26 11:23:37;;;;;;;5.80;1.93;;;16.50;99.90;;;;;;5026711;28;20199;-76
2022/11/26 11:26:15;;;;;;;3.27;1.80;;;16.50;99.90;;;;;;5030022;28;20188;-76
2022/11/26 11:28:49;;;;;;;3.87;1.90;;;16.60;99.90;;;;;;5021087;28;20208;-77
2022/11/26 11:31:20;;;;;;;6.33;1.77;;;16.60;99.90;;;;;;5021176;28;20238;-77
2022/11/26 11:33:49;;;;;;;2.63;1.70;;;16.70;99.90;;;;;;5023989;28;20192;-76
2022/11/26 11:36:26;;;;;;;4.17;1.87;;;16.70;99.90;;;;;;5023568;28;20189;-76
2022/11/26 11:39:01;;;;;;;2.57;1.63;;;16.70;99.90;;;;;;5042927;28;20706;-76
2022/11/26 11:41:46;;;;;;;2.40;1.80;;;16.70;99.90;;;;;;5018088;28;20294;-77
2022/11/26 11:44:26;;;;;;;4.03;1.67;;;16.80;99.90;;;;;;5027530;28;20188;-76
2022/11/26 11:47:20;;;;;;;1.80;1.53;;;16.80;99.90;;;;;;5021049;28;20243;-76
2022/11/26 11:50:12;;;;;;;3.13;1.80;;;16.80;99.90;;;;;;5025182;28;20275;-76
2022/11/26 11:53:27;;;;;;;6.10;2.20;;;16.80;99.90;;;;;;5020286;28;20192;-76
2022/11/26 11:55:59;;;;;;;3.27;1.83;;;16.80;99.90;;;;;;5022649;28;20295;-76
2022/11/26 11:58:54;;;;;;;3.47;2.00;;;16.80;99.90;;;;;;5023352;28;20254;-76
2022/11/26 12:01:46;;;;;;;2.30;1.60;;;16.80;99.90;;;;;;5018367;28;20192;-75
2022/11/26 12:04:42;;;;;;;2.80;1.90;;;16.80;99.90;;;;;;5000487;28;20276;-75
2022/11/26 12:07:26;;;;;;;2.40;1.60;;;16.70;99.90;;;;;;5053203;28;20188;-76
2022/11/26 12:10:38;;;;;;;2.57;1.67;;;16.70;99.90;;;;;;5027385;28;20684;-75
2022/11/26 12:13:11;;;;;;;9.30;2.00;;;16.70;99.90;;;;;;4987765;28;20261;-76
2022/11/26 12:15:50;;;;;;;9.87;1.60;;;16.70;99.90;;;;;;5023133;28;20203;-76
2022/11/26 12:18:38;;;;;;;7.90;1.93;;;16.70;99.90;;;;;;5027193;28;20289;-76
2022/11/26 12:21:27;;;;;;;3.10;1.80;;;16.70;99.90;;;;;;5021661;28;20196;-76
2022/11/26 12:24:38;;;;;;;6.50;1.83;;;16.70;99.90;;;;;;5019153;28;20195;-75
2022/11/26 12:27:37;;;;;;;2.57;1.63;;;16.60;99.90;;;;;;5029233;28;20835;-76
2022/11/26 12:30:20;;;;;;;2.37;2.13;;;16.60;99.90;;;;;;4993804;28;20200;-76
2022/11/26 12:32:59;;;;;;;3.40;1.93;;;16.60;99.90;;;;;;5005217;28;20192;-76
2022/11/26 12:35:34;;;;;;;3.33;2.03;;;16.60;99.90;;;;;;5032490;28;20291;-76
2022/11/26 12:38:26;;;;;;;3.03;1.80;;;16.60;99.90;;;;;;5021988;28;20194;-76
2022/11/26 12:41:05;;;;;;;2.23;1.67;;;16.60;99.90;;;;;;5034460;28;20283;-76
2022/11/26 12:44:05;;;;;;;2.30;1.67;;;16.50;99.90;;;;;;5024072;28;20195;-77
2022/11/26 12:46:49;;;;;;;2.30;1.70;;;16.40;99.90;;;;;;5020878;28;20204;-77
2022/11/26 12:49:36;;;;;;;2.83;1.90;;;16.40;99.90;;;;;;5018596;28;20223;-76
2022/11/26 12:52:46;;;;;;;1.80;1.70;;;16.40;99.90;;;;;;5037939;28;20200;-76
2022/11/26 12:55:37;;;;;;;3.93;1.80;;;16.40;99.90;;;;;;5016444;28;20191;-76
2022/11/26 12:58:14;;;;;;;2.33;1.67;;;16.30;99.90;;;;;;5013505;28;20950;-76
2022/11/26 13:00:41;;;;;;;2.13;1.70;;;16.30;99.90;;;;;;5025737;28;20682;-76
2022/11/26 13:03:17;;;;;;;4.17;1.80;;;16.30;99.90;;;;;;4999902;28;20200;-76
2022/11/26 13:05:59;;;;;;;6.03;1.77;;;16.20;99.90;;;;;;5011961;28;20866;-76
2022/11/26 13:08:47;;;;;;;3.03;1.70;;;16.20;99.90;;;;;;5009952;28;20999;-76
2022/11/26 13:11:55;;;;;;;3.63;1.60;;;16.10;99.90;;;;;;5008156;28;20239;-77
2022/11/26 13:15:00;;;;;;;6.27;1.80;;;16.10;99.90;;;;;;5008643;28;20196;-77
2022/11/26 13:17:43;;;;;;;12.17;2.37;;;16.20;99.90;;;;;;5013089;28;20305;-76
2022/11/26 13:20:51;;;;;;;2.87;2.20;;;16.10;99.90;;;;;;5017983;28;20221;-76
2022/11/26 13:23:43;;;;;;;4.93;1.83;;;16.00;99.90;;;;;;5013182;28;20188;-76
2022/11/26 13:26:36;;;;;;;1.70;1.60;;;15.90;99.90;;;;;;5002342;28;20275;-76
2022/11/26 13:29:43;;;;;;;5.80;2.17;;;15.90;99.90;;;;;;5011884;28;20212;-76